Terminal Aerodrome Forecast
Issued by NWS Louisville, KY

Home | Current Version | Previous Version | Text Only | Print | Product List | Glossary On
Versions: 1 2 3 4 5 6 7 8 9 10 11 12 13 14 15 16 17 18
168
FTUS43 KLMK 221720
TAFBWG
TAF
KBWG 221720Z 2218/2318 08005KT P6SM VCSH BKN035
     FM222100 06005KT P6SM VCSH BKN015
     FM230300 36009KT 5SM -DZ BR OVC015
     FM231200 32015G20KT 6SM -DZ BR OVC012=

USA.gov is the U.S. government's official web portal to all federal, state and local government web resources and services.